Time;durP1;ratioP1;P1;durP2;ratioP2;P2;SDS_P1;SDS_P2;PMS_P1;PMS_P2;Temp;Humidity;BMP_temperature;BMP_pressure;BME280_temperature;BME280_humidity;BME280_pressure;Samples;Min_cycle;Max_cycle;Signal;HPM_P1;HPM_P2
2021/11/12 00:12:30;;;;;;;25.83;15.88;;;;;;;5.60;56.66;101011.88;4348952;32;33872;-86
2021/11/12 00:14:59;;;;;;;25.98;16.10;;;;;;;5.69;56.50;101011.94;4351356;32;33431;-85
2021/11/12 00:17:31;;;;;;;23.02;14.25;;;;;;;5.41;57.33;101009.94;4332126;33;33736;-85
2021/11/12 00:20:02;;;;;;;25.55;15.32;;;;;;;5.43;57.53;101010.84;4331731;33;32962;-86
2021/11/12 00:22:30;;;;;;;24.05;14.48;;;;;;;5.49;57.16;101005.69;4331743;33;32915;-86
2021/11/12 00:25:02;;;;;;;23.20;14.63;;;;;;;5.53;56.87;101012.63;4331879;33;33158;-85
2021/11/12 00:27:33;;;;;;;22.95;14.68;;;;;;;5.04;57.97;101005.22;4331939;33;34637;-85
2021/11/12 00:30:20;;;;;;;24.17;14.32;;;;;;;5.08;57.46;101004.41;4332077;33;33823;-86
2021/11/12 00:35:29;;;;;;;23.12;14.93;;;;;;;4.91;57.92;101006.78;4343019;33;33533;-86
2021/11/12 00:38:03;;;;;;;24.17;13.80;;;;;;;4.98;57.96;101012.91;4333106;33;34000;-86
2021/11/12 00:46:17;;;;;;;21.52;13.05;;;;;;;5.04;57.87;101007.81;4331083;33;33076;-85
2021/11/12 00:53:55;;;;;;;24.73;14.00;;;;;;;5.21;56.40;100999.37;4330298;33;33594;-85
2021/11/12 00:56:26;;;;;;;23.02;13.98;;;;;;;5.23;55.95;101000.28;4332982;33;33004;-84
2021/11/12 00:58:58;;;;;;;23.25;13.77;;;;;;;5.21;56.00;100997.66;4331695;33;32957;-87
2021/11/12 01:01:29;;;;;;;27.98;13.93;;;;;;;4.78;57.61;100999.72;4331378;33;33257;-87
2021/11/12 01:04:01;;;;;;;23.05;13.70;;;;;;;4.86;57.32;101003.28;4331739;33;33655;-87
2021/11/12 01:06:30;;;;;;;22.67;12.88;;;;;;;5.11;56.84;100995.84;4330812;33;34160;-86
2021/11/12 01:09:09;;;;;;;25.27;13.45;;;;;;;5.11;57.21;100996.69;4331572;33;33341;-86
2021/11/12 01:11:39;;;;;;;24.65;13.62;;;;;;;4.86;58.08;100987.78;4331990;33;33452;-87
2021/11/12 01:14:08;;;;;;;22.92;13.70;;;;;;;5.18;57.32;100989.87;4331637;33;34360;-87
2021/11/12 01:16:36;;;;;;;24.40;14.32;;;;;;;5.11;57.18;100983.78;4343537;33;33596;-87
2021/11/12 01:19:06;;;;;;;26.83;16.05;;;;;;;5.12;57.04;100987.22;4331472;33;33152;-86
2021/11/12 01:21:34;;;;;;;24.60;13.73;;;;;;;4.99;57.58;100983.63;4343472;33;34304;-86
2021/11/12 01:24:03;;;;;;;24.35;14.32;;;;;;;5.05;57.54;100981.09;4331185;33;33265;-86
2021/11/12 01:26:31;;;;;;;21.80;12.73;;;;;;;5.01;57.22;100980.22;4331004;33;33471;-86
2021/11/12 01:28:59;;;;;;;20.37;12.65;;;;;;;5.18;56.70;100977.84;4331411;33;34753;-86
2021/11/12 01:31:28;;;;;;;23.83;13.50;;;;;;;5.23;56.22;100979.59;4343584;33;32775;-86
2021/11/12 01:33:57;;;;;;;18.83;11.55;;;;;;;5.18;56.40;100976.97;4333159;33;32745;-86
2021/11/12 01:38:59;;;;;;;19.55;11.98;;;;;;;5.12;56.48;100971.72;4355079;32;34986;-85
2021/11/12 01:41:30;;;;;;;22.02;12.95;;;;;;;5.18;56.25;100976.97;4332577;33;34111;-85
2021/11/12 01:44:03;;;;;;;18.37;11.80;;;;;;;5.10;56.65;100970.84;4331784;33;32712;-87
2021/11/12 01:46:42;;;;;;;19.50;11.60;;;;;;;5.08;56.60;100976.00;4331641;33;32906;-86
2021/11/12 01:49:16;;;;;;;20.73;11.57;;;;;;;4.91;57.03;100967.19;4332427;33;34133;-86
2021/11/12 01:51:51;;;;;;;18.25;11.45;;;;;;;4.71;57.49;100967.81;4330980;33;33432;-86
2021/11/12 01:59:53;;;;;;;18.62;11.15;;;;;;;4.57;58.46;100961.59;4335428;33;33366;-87
2021/11/12 02:02:22;;;;;;;19.50;11.57;;;;;;;4.73;58.24;100966.09;4355585;32;33571;-87
2021/11/12 02:04:51;;;;;;;17.33;11.25;;;;;;;4.77;58.24;100969.59;4343282;32;34112;-87
2021/11/12 02:07:20;;;;;;;18.80;11.50;;;;;;;4.84;57.83;100963.66;4343013;33;34269;-87
2021/11/12 02:09:48;;;;;;;20.75;11.32;;;;;;;4.88;57.81;100968.03;4343078;33;33555;-86
2021/11/12 02:14:48;;;;;;;20.25;11.77;;;;;;;4.57;58.38;100957.28;4349022;32;34226;-87
2021/11/12 02:17:24;;;;;;;17.80;12.13;;;;;;;4.68;57.85;100960.88;4345547;32;33643;-84
2021/11/12 02:19:58;;;;;;;19.65;11.65;;;;;;;4.60;58.06;100957.34;4345499;32;33131;-87
2021/11/12 02:22:30;;;;;;;19.70;11.65;;;;;;;4.56;58.62;100953.00;4345876;32;33065;-86
2021/11/12 02:25:10;;;;;;;19.02;11.12;;;;;;;4.75;58.09;100956.66;4334185;32;33134;-86
2021/11/12 02:27:58;;;;;;;18.05;10.80;;;;;;;4.66;58.50;100962.56;4344519;32;32808;-86
2021/11/12 02:30:30;;;;;;;17.02;9.70;;;;;;;4.80;57.98;100957.59;4358541;32;33745;-87
2021/11/12 02:33:11;;;;;;;;;;;;;;;4.74;58.22;100951.50;4345797;32;32739;-85
2021/11/12 02:35:52;;;;;;;18.48;10.68;;;;;;;4.34;58.89;100950.09;4345672;32;33652;-85
2021/11/12 02:38:20;;;;;;;20.00;10.93;;;;;;;4.35;58.27;100950.97;4357712;32;33932;-85
2021/11/12 02:40:50;;;;;;;16.37;10.75;;;;;;;4.35;58.19;100957.00;4321158;32;32761;-87
2021/11/12 02:43:18;;;;;;;16.10;10.15;;;;;;;4.60;57.36;100954.75;4357559;32;33836;-85
2021/11/12 02:45:46;;;;;;;20.12;11.60;;;;;;;4.63;57.06;100949.63;4345154;32;33508;-86
2021/11/12 02:48:16;;;;;;;19.27;10.65;;;;;;;4.66;57.20;100954.81;4357639;32;33876;-86
2021/11/12 02:50:44;;;;;;;18.40;10.45;;;;;;;4.72;56.95;100958.31;4345303;32;32589;-86
2021/11/12 02:53:14;;;;;;;20.55;11.30;;;;;;;4.71;56.91;100944.56;4357687;32;33675;-86
2021/11/12 02:55:45;;;;;;;17.93;10.17;;;;;;;4.17;59.05;100949.00;4333245;32;33154;-86
2021/11/12 02:58:13;;;;;;;18.87;10.70;;;;;;;4.24;58.59;100957.69;4344951;32;33736;-87
2021/11/12 03:00:42;;;;;;;19.65;10.98;;;;;;;4.49;57.57;100946.00;4346694;32;32162;-86
2021/11/12 03:03:11;;;;;;;19.65;9.57;;;;;;;4.41;57.51;100942.44;4359226;32;33866;-86
2021/11/12 03:05:39;;;;;;;20.75;11.00;;;;;;;4.45;57.12;100946.81;4359520;32;34248;-86
2021/11/12 03:08:07;;;;;;;18.10;10.38;;;;;;;4.74;56.45;100951.50;4359253;32;35080;-87
2021/11/12 03:10:36;;;;;;;16.62;9.30;;;;;;;4.71;56.43;100943.69;4346976;32;33266;-86
2021/11/12 03:13:04;;;;;;;16.70;10.88;;;;;;;4.11;58.37;100947.19;4347052;32;33870;-86
2021/11/12 03:15:33;;;;;;;18.48;10.07;;;;;;;4.57;56.90;100941.78;4336300;33;33526;-86
2021/11/12 03:18:02;;;;;;;17.85;10.10;;;;;;;4.82;56.36;100950.72;4320165;33;33130;-86
2021/11/12 03:20:31;;;;;;;18.42;10.55;;;;;;;4.65;56.80;100947.06;4332261;33;32673;-87
2021/11/12 03:25:39;;;;;;;17.12;10.20;;;;;;;4.29;57.93;100941.41;4320293;33;32510;-88
2021/11/12 03:28:17;;;;;;;17.77;9.98;;;;;;;4.71;57.03;100938.50;4332163;33;34906;-86
2021/11/12 03:31:21;;;;;;;18.77;10.32;;;;;;;4.23;58.02;100948.22;4333767;33;33330;-87
2021/11/12 04:02:04;;;;;;;16.05;8.93;;;;;;;4.23;57.69;100943.94;4346856;32;33468;-86
2021/11/12 04:04:46;;;;;;;16.12;8.93;;;;;;;4.17;57.83;100943.84;4348267;32;33813;-85
2021/11/12 04:07:30;;;;;;;16.80;9.23;;;;;;;4.25;57.77;100941.38;4336475;32;32641;-85
2021/11/12 04:21:22;;;;;;;15.80;9.93;;;;;;;4.21;57.59;100932.72;4348731;32;34379;-84
2021/11/12 05:14:09;;;;;;;20.33;10.02;;;;;;;3.67;59.84;100937.91;4358808;32;33008;-86
2021/11/12 05:46:42;;;;;;;17.85;9.95;;;;;;;4.00;59.45;100944.47;4330048;33;33783;-86
2021/11/12 05:57:16;;;;;;;20.25;10.43;;;;;;;3.93;60.61;100940.03;4329560;33;33423;-85
2021/11/12 05:59:45;;;;;;;18.15;9.77;;;;;;;4.24;58.59;100945.66;4331379;33;33364;-87
2021/11/12 06:02:13;;;;;;;18.52;9.45;;;;;;;4.12;58.43;100946.34;4344103;33;35224;-86
2021/11/12 06:04:41;;;;;;;22.35;11.10;;;;;;;4.47;57.30;100945.13;4356112;32;33357;-87
2021/11/12 06:07:09;;;;;;;22.98;10.90;;;;;;;4.58;57.11;100943.53;4344204;33;33506;-86
2021/11/12 06:09:37;;;;;;;23.15;10.82;;;;;;;4.31;58.21;100946.63;4331881;33;33649;-86
2021/11/12 06:12:11;;;;;;;19.70;10.80;;;;;;;4.19;58.94;100949.91;4344101;32;33293;-85
2021/11/12 06:14:39;;;;;;;19.10;9.98;;;;;;;4.03;60.06;100941.06;4348605;32;32343;-88
2021/11/12 06:17:09;;;;;;;19.10;10.60;;;;;;;4.05;59.43;100944.50;4334045;32;34192;-86
2021/11/12 06:19:37;;;;;;;20.73;10.63;;;;;;;4.48;57.84;100946.84;4346273;32;34363;-88
2021/11/12 06:22:06;;;;;;;19.12;11.27;;;;;;;4.84;56.85;100943.00;4345842;32;33384;-84
2021/11/12 06:24:38;;;;;;;20.92;11.73;;;;;;;4.71;58.09;100941.97;4346143;32;32683;-86
2021/11/12 06:27:07;;;;;;;24.80;12.75;;;;;;;4.66;58.33;100946.22;4359297;32;32948;-87
2021/11/12 06:29:37;;;;;;;22.00;10.73;;;;;;;4.42;59.76;100939.03;4346027;32;33064;-87
2021/11/12 06:32:06;;;;;;;22.98;12.07;;;;;;;4.62;59.62;100942.72;4335910;33;34896;-87
2021/11/12 06:34:34;;;;;;;24.17;12.50;;;;;;;4.61;59.09;100943.56;4346466;33;32633;-86
2021/11/12 06:37:05;;;;;;;27.10;11.80;;;;;;;4.79;58.77;100942.09;4348744;33;33898;-88
2021/11/12 06:39:33;;;;;;;24.08;12.88;;;;;;;4.93;58.74;100952.56;4336165;33;34393;-88
2021/11/12 06:42:13;;;;;;;22.58;12.40;;;;;;;5.15;58.20;100953.69;4348303;33;33727;-86
2021/11/12 06:50:12;;;;;;;24.37;12.65;;;;;;;5.32;58.43;100948.69;4337468;33;33692;-87
2021/11/12 06:52:43;;;;;;;28.02;13.15;;;;;;;5.16;59.50;100935.59;4334167;33;34161;-85
2021/11/12 06:55:16;;;;;;;20.48;12.88;;;;;;;5.40;58.77;100952.22;4333450;33;32210;-85
2021/11/12 06:57:46;;;;;;;20.73;11.57;;;;;;;5.39;58.67;100950.47;4333917;33;32755;-89
2021/11/12 07:00:19;;;;;;;23.40;12.13;;;;;;;5.53;58.60;100958.34;4335229;33;35082;-85
2021/11/12 07:02:48;;;;;;;22.10;11.57;;;;;;;5.72;58.21;100953.34;4335307;33;34189;-87
2021/11/12 07:05:18;;;;;;;22.55;12.15;;;;;;;5.98;57.32;100957.06;4336162;33;32613;-88
2021/11/12 07:07:48;;;;;;;18.77;11.32;;;;;;;6.37;56.56;100952.13;4335705;33;33003;-88
2021/11/12 07:10:16;;;;;;;22.08;12.30;;;;;;;6.34;56.81;100940.03;4323442;33;34661;-88
2021/11/12 07:12:45;;;;;;;22.48;11.60;;;;;;;6.40;57.13;100948.69;4335573;33;32987;-88
2021/11/12 07:15:14;;;;;;;22.95;11.80;;;;;;;6.37;57.90;100953.84;4346110;33;34349;-88
2021/11/12 07:17:43;;;;;;;19.83;11.90;;;;;;;6.31;58.27;100958.13;4334079;33;33032;-88
2021/11/12 07:20:11;;;;;;;26.25;13.00;;;;;;;6.39;58.37;100967.66;4346787;33;34176;-88
2021/11/12 07:22:39;;;;;;;26.27;13.85;;;;;;;6.61;57.94;100953.97;4336638;33;34358;-87
2021/11/12 07:25:08;;;;;;;28.60;13.20;;;;;;;6.83;57.46;100952.34;4335556;33;33193;-89
2021/11/12 07:27:36;;;;;;;28.30;12.10;;;;;;;6.84;57.82;100953.22;4313861;33;34687;-89
2021/11/12 07:30:16;;;;;;;21.40;11.95;;;;;;;6.87;58.26;100949.75;4337097;33;32911;-88
2021/11/12 07:32:45;;;;;;;21.02;12.25;;;;;;;7.30;57.23;100953.34;4336638;33;33631;-90
2021/11/12 07:35:18;;;;;;;26.35;12.07;;;;;;;7.40;57.04;100959.41;4340096;32;33032;-88
2021/11/12 07:37:46;;;;;;;25.35;11.10;;;;;;;7.63;56.60;100954.25;4351685;32;33474;-89
2021/11/12 07:40:23;;;;;;;23.27;12.02;;;;;;;7.90;56.11;100957.72;4350897;32;34376;-88
2021/11/12 07:43:17;;;;;;;24.75;12.00;;;;;;;7.86;56.22;100954.25;4350729;32;32880;-88
2021/11/12 07:46:11;;;;;;;27.65;12.90;;;;;;;8.16;55.62;100949.03;4336368;32;33058;-89
2021/11/12 07:48:45;;;;;;;20.98;12.48;;;;;;;8.28;55.01;100953.34;4339639;33;33768;-88
2021/11/12 07:51:13;;;;;;;22.77;12.70;;;;;;;8.34;55.30;100958.53;4323503;33;33157;-90
2021/11/12 07:53:42;;;;;;;19.73;11.63;;;;;;;8.47;55.33;100955.06;4335947;33;34104;-89
2021/11/12 07:56:16;;;;;;;24.60;12.80;;;;;;;8.37;56.34;100958.50;4335546;33;33588;-90
2021/11/12 07:58:49;;;;;;;24.50;12.43;;;;;;;8.84;55.22;100962.72;4336857;33;33332;-90
2021/11/12 08:01:23;;;;;;;20.83;11.93;;;;;;;8.91;54.99;100970.47;4336328;33;33693;-87
2021/11/12 08:03:58;;;;;;;24.67;13.05;;;;;;;9.01;54.45;100967.84;4336361;33;34418;-88
2021/11/12 08:06:28;;;;;;;23.38;12.70;;;;;;;9.32;53.82;100962.47;4324199;33;34534;-90
2021/11/12 08:09:08;;;;;;;20.83;12.07;;;;;;;9.76;52.95;100960.44;4334963;33;32813;-88
2021/11/12 08:11:56;;;;;;;22.95;13.35;;;;;;;9.61;53.51;100968.34;4334402;33;34159;-90
2021/11/12 08:14:52;;;;;;;21.58;12.77;;;;;;;9.94;52.93;100967.22;4327288;32;33395;-88
2021/11/12 08:17:44;;;;;;;23.83;12.00;;;;;;;9.95;52.88;100968.94;4344738;32;32850;-89
2021/11/12 08:23:02;;;;;;;26.80;13.82;;;;;;;10.33;52.14;100972.03;4336712;33;33625;-88
2021/11/12 08:25:43;;;;;;;21.12;13.60;;;;;;;10.47;51.61;100962.37;4334430;33;34461;-88
2021/11/12 08:28:19;;;;;;;23.30;13.77;;;;;;;10.63;51.38;100967.44;4335470;33;33938;-89
2021/11/12 08:31:43;;;;;;;22.58;13.15;;;;;;;10.98;50.25;100972.22;4347398;32;34057;-88
2021/11/12 08:33:46;;;;;;;20.27;12.50;;;;;;;10.66;51.34;100960.44;4333983;32;33490;-88
2021/11/12 08:36:36;;;;;;;34.15;18.23;;;;;;;11.10;50.60;100960.78;4333733;33;33556;-88
2021/11/12 08:39:15;;;;;;;28.48;17.52;;;;;;;10.59;52.71;100968.34;4332994;33;33422;-88
2021/11/12 08:41:51;;;;;;;30.23;17.48;;;;;;;10.73;52.30;100965.56;4333392;33;31598;-88
2021/11/12 08:44:28;;;;;;;30.23;16.55;;;;;;;10.79;52.39;100970.72;4333315;33;33527;-89
2021/11/12 08:47:07;;;;;;;25.25;15.43;;;;;;;10.76;52.86;100965.56;4320766;33;33323;-88
2021/11/12 08:49:38;;;;;;;26.02;16.55;;;;;;;10.97;51.93;100967.88;4331544;33;32586;-88
2021/11/12 08:52:08;;;;;;;27.42;16.30;;;;;;;11.21;51.54;100965.84;4320586;33;33950;-89
2021/11/12 08:54:38;;;;;;;29.08;16.42;;;;;;;11.08;51.77;100954.69;4308173;33;33658;-89
2021/11/12 08:57:11;;;;;;;26.70;16.02;;;;;;;10.96;52.26;100953.13;4320123;33;33805;-89
2021/11/12 08:59:40;;;;;;;26.00;16.77;;;;;;;11.43;50.99;100958.53;4344691;33;32901;-90
2021/11/12 09:02:11;;;;;;;30.15;17.92;;;;;;;11.39;50.99;100954.25;4320383;33;33425;-88
2021/11/12 09:04:39;;;;;;;31.27;16.83;;;;;;;11.66;50.14;100952.97;4320521;33;33174;-87
2021/11/12 09:07:11;;;;;;;29.85;17.52;;;;;;;11.70;50.34;100953.78;4320208;33;33332;-88
2021/11/12 09:09:40;;;;;;;30.62;16.90;;;;;;;11.80;49.91;100949.28;4330961;33;33618;-89
2021/11/12 09:12:10;;;;;;;29.67;16.60;;;;;;;11.83;50.04;100947.47;4318972;33;34480;-87
2021/11/12 09:14:49;;;;;;;26.50;16.25;;;;;;;11.73;50.41;100951.13;4332802;33;33443;-89
2021/11/12 09:17:20;;;;;;;29.70;15.43;;;;;;;12.16;49.17;100946.94;4320597;33;35006;-88
2021/11/12 09:19:54;;;;;;;;;;;;;;;12.07;49.54;100947.09;4320064;33;33947;-89
2021/11/12 09:22:25;;;;;;;26.40;15.30;;;;;;;12.52;48.46;100945.37;4331451;33;33445;-89
2021/11/12 09:24:53;;;;;;;;;;;;;;;12.79;48.03;100939.59;4332949;33;33243;-86
2021/11/12 09:27:22;;;;;;;25.77;16.02;;;;;;;12.59;48.32;100940.91;4343600;33;33711;-87
2021/11/12 09:29:51;;;;;;;26.52;16.30;;;;;;;12.58;48.57;100930.44;4320284;33;32817;-88
2021/11/12 09:32:19;;;;;;;25.52;15.52;;;;;;;12.50;49.02;100933.25;4332300;33;33318;-87
2021/11/12 09:34:47;;;;;;;22.67;14.73;;;;;;;12.96;48.14;100924.44;4324049;33;35238;-88
2021/11/12 09:37:21;;;;;;;25.12;15.82;;;;;;;13.19;47.65;100920.44;4346124;33;33450;-87
2021/11/12 09:39:57;;;;;;;23.62;15.82;;;;;;;13.35;46.82;100921.78;4334897;33;33982;-89
2021/11/12 09:42:29;;;;;;;23.60;14.05;;;;;;;12.81;48.15;100914.31;4346986;33;33334;-86
2021/11/12 09:45:00;;;;;;;21.67;14.32;;;;;;;13.07;47.39;100902.38;4335154;33;33696;-87
2021/11/12 09:47:29;;;;;;;21.77;13.98;;;;;;;13.01;47.55;100904.25;4335007;33;34406;-88
2021/11/12 09:50:02;;;;;;;21.05;13.68;;;;;;;13.09;47.12;100904.06;4346847;33;33484;-87
2021/11/12 09:52:31;;;;;;;24.05;13.15;;;;;;;13.46;46.38;100900.63;4334306;33;33993;-87
2021/11/12 09:55:00;;;;;;;23.00;14.20;;;;;;;13.47;46.08;100899.72;4335423;33;34010;-88
2021/11/12 09:57:30;;;;;;;19.90;12.48;;;;;;;13.55;45.82;100902.16;4334327;33;33130;-86
2021/11/12 10:00:01;;;;;;;19.98;13.65;;;;;;;13.41;46.11;100899.03;4334500;33;32560;-86
2021/11/12 10:02:42;;;;;;;23.17;13.17;;;;;;;13.43;46.01;100890.25;4335441;33;33478;-89
2021/11/12 10:05:12;;;;;;;21.12;12.93;;;;;;;13.62;45.61;100885.41;4335290;33;34660;-87
2021/11/12 10:07:40;;;;;;;20.30;12.45;;;;;;;13.95;44.66;100880.19;4346060;33;33239;-87
2021/11/12 10:10:14;;;;;;;23.23;13.05;;;;;;;14.22;44.01;100875.09;4322438;33;34307;-88
2021/11/12 10:12:44;;;;;;;24.00;12.30;;;;;;;14.17;43.77;100871.72;4323282;33;34748;-86
2021/11/12 10:15:20;;;;;;;20.02;12.70;;;;;;;14.32;43.55;100871.31;4322838;33;33311;-87
2021/11/12 10:17:50;;;;;;;22.83;11.98;;;;;;;14.20;44.08;100863.78;4348120;33;33479;-87
2021/11/12 10:20:23;;;;;;;21.77;13.30;;;;;;;14.08;43.93;100861.50;4324501;33;33426;-88
2021/11/12 10:23:00;;;;;;;21.70;13.43;;;;;;;14.17;43.74;100854.25;4325139;33;33337;-89
2021/11/12 10:25:28;;;;;;;21.40;13.45;;;;;;;14.03;44.34;100854.63;4313554;33;33345;-89
2021/11/12 10:27:59;;;;;;;;;;;;;;;14.26;43.43;100850.50;4333340;33;34917;-87
2021/11/12 10:30:28;;;;;;;23.35;12.85;;;;;;;14.47;43.10;100837.69;4359291;32;32661;-88
2021/11/12 10:32:58;;;;;;;21.33;12.63;;;;;;;14.34;43.39;100838.03;4346483;32;33849;-86
2021/11/12 10:35:30;;;;;;;17.50;11.10;;;;;;;14.06;43.77;100837.13;4320484;33;34209;-89
2021/11/12 10:38:11;;;;;;;21.02;12.27;;;;;;;14.52;42.83;100826.16;4320046;33;33591;-88
2021/11/12 10:40:40;;;;;;;16.20;11.12;;;;;;;14.58;42.46;100832.12;4320061;33;33090;-89
2021/11/12 10:43:08;;;;;;;16.27;10.88;;;;;;;14.71;41.86;100830.03;4320452;33;34023;-89
2021/11/12 10:45:39;;;;;;;17.90;10.73;;;;;;;14.22;42.79;100824.44;4319973;33;34143;-88
2021/11/12 10:48:08;;;;;;;18.85;11.77;;;;;;;14.63;42.12;100831.09;4320127;33;34422;-87
2021/11/12 10:50:40;;;;;;;21.35;12.02;;;;;;;14.66;42.05;100819.66;4319676;33;34067;-87
2021/11/12 10:53:15;;;;;;;18.50;11.70;;;;;;;15.17;41.03;100820.66;4319250;33;33417;-87
2021/11/12 10:55:54;;;;;;;21.73;11.57;;;;;;;15.05;40.66;100810.56;4318357;33;33480;-89
2021/11/12 10:58:28;;;;;;;18.83;12.35;;;;;;;15.29;40.49;100808.91;4319521;33;35250;-88
2021/11/12 11:00:56;;;;;;;20.70;12.45;;;;;;;15.56;39.88;100803.63;4320700;33;33710;-88
2021/11/12 11:03:26;;;;;;;21.73;12.88;;;;;;;15.74;39.43;100802.13;4321667;33;32998;-88
2021/11/12 11:06:02;;;;;;;19.50;12.05;;;;;;;15.68;39.66;100803.19;4318351;33;33607;-88
2021/11/12 11:08:34;;;;;;;21.15;13.23;;;;;;;15.78;39.71;100801.97;4319544;33;35258;-88
2021/11/12 11:11:10;;;;;;;23.33;13.43;;;;;;;15.75;39.30;100796.81;4320326;33;33455;-91
2021/11/12 11:13:51;;;;;;;21.35;13.70;;;;;;;16.24;38.76;100801.22;4319081;32;34200;-89
2021/11/12 11:16:29;;;;;;;21.23;14.05;;;;;;;15.77;39.34;100787.09;4351515;32;34208;-89
2021/11/12 11:19:01;;;;;;;20.35;14.13;;;;;;;15.81;39.38;100782.63;4349196;32;33813;-89
2021/11/12 11:21:33;;;;;;;19.02;12.50;;;;;;;16.09;38.61;100785.09;4362913;32;32906;-88
2021/11/12 11:24:09;;;;;;;23.30;13.02;;;;;;;16.33;38.23;100788.56;4363418;32;32655;-88
2021/11/12 11:26:38;;;;;;;20.00;13.35;;;;;;;15.96;38.56;100784.69;4363141;32;34406;-88
2021/11/12 11:29:10;;;;;;;20.60;13.05;;;;;;;15.83;38.73;100778.16;4359743;32;34518;-88
2021/11/12 11:31:39;;;;;;;23.67;13.65;;;;;;;16.64;37.19;100776.84;4360841;32;33900;-88
2021/11/12 11:34:09;;;;;;;20.05;12.52;;;;;;;16.56;37.60;100773.66;4360725;32;34130;-88
2021/11/12 11:36:44;;;;;;;;;;;;;;;16.59;37.15;100768.28;4360559;32;33393;-89
2021/11/12 11:39:14;;;;;;;20.02;12.23;;;;;;;16.53;36.90;100763.28;4349029;32;35199;-87
2021/11/12 11:41:48;;;;;;;19.08;11.80;;;;;;;16.34;37.41;100773.63;4361014;32;33348;-88
2021/11/12 11:44:26;;;;;;;16.25;10.73;;;;;;;16.24;36.94;100756.53;4349779;32;33146;-87
2021/11/12 11:46:58;;;;;;;20.58;11.95;;;;;;;16.88;35.91;100761.00;4360714;32;33077;-87
2021/11/12 11:49:29;;;;;;;18.40;11.88;;;;;;;17.19;35.11;100746.56;4348367;32;34111;-87
2021/11/12 11:51:59;;;;;;;18.33;10.98;;;;;;;17.06;34.83;100750.66;4350070;32;34000;-89
2021/11/12 11:54:35;;;;;;;14.85;10.15;;;;;;;16.83;34.90;100753.31;4362943;32;34461;-89
2021/11/12 11:57:16;;;;;;;14.00;9.65;;;;;;;17.31;33.94;100747.81;4351283;32;32915;-88
2021/11/12 11:59:46;;;;;;;17.62;11.00;;;;;;;17.61;33.73;100732.47;4351080;32;34142;-90
2021/11/12 12:02:20;;;;;;;18.43;11.33;;;;;;;17.23;34.08;100742.03;4363367;32;35021;-87
2021/11/12 12:04:51;;;;;;;17.98;10.60;;;;;;;17.09;34.27;100732.94;4361827;32;34199;-89
2021/11/12 12:07:28;;;;;;;16.08;11.12;;;;;;;17.47;33.64;100727.81;4348544;32;34661;-90
2021/11/12 12:10:02;;;;;;;20.92;11.38;;;;;;;18.09;32.12;100721.56;4337979;33;33668;-90
2021/11/12 12:12:36;;;;;;;19.23;11.25;;;;;;;18.15;31.60;100729.22;4348894;33;32826;-89
2021/11/12 12:15:04;;;;;;;18.35;10.85;;;;;;;17.88;32.11;100734.78;4347852;33;32837;-88
2021/11/12 12:17:34;;;;;;;22.98;12.45;;;;;;;18.23;31.71;100726.19;4336066;33;34429;-88
2021/11/12 12:20:12;;;;;;;14.95;9.88;;;;;;;18.05;31.96;100726.13;4336505;33;33360;-88
2021/11/12 13:25:52;;;;;;;21.62;11.25;;;;;;;19.72;27.33;100677.34;4351621;33;33973;-87
2021/11/12 13:28:29;;;;;;;21.37;11.70;;;;;;;19.50;27.83;100678.50;4357300;33;34621;-89
2021/11/12 13:31:01;;;;;;;21.12;11.45;;;;;;;19.41;27.85;100681.63;4349075;33;33619;-90
2021/11/12 13:33:49;;;;;;;18.75;11.35;;;;;;;20.04;26.78;100683.56;4360527;32;33455;-88
2021/11/12 13:36:23;;;;;;;16.90;9.90;;;;;;;21.16;25.29;100676.22;4347874;33;34441;-87
2021/11/12 13:39:19;;;;;;;19.58;11.10;;;;;;;21.81;24.06;100682.03;4347909;33;33981;-88
2021/11/12 13:41:51;;;;;;;18.67;11.45;;;;;;;22.71;23.17;100670.94;4336477;33;33167;-89
2021/11/12 13:44:23;;;;;;;19.42;11.00;;;;;;;23.07;22.71;100672.91;4335364;33;33374;-88
2021/11/12 13:47:02;;;;;;;18.45;10.85;;;;;;;23.18;22.47;100667.72;4347910;33;35087;-87
2021/11/12 13:49:37;;;;;;;15.77;11.07;;;;;;;23.68;21.89;100662.47;4335266;33;32937;-87
2021/11/12 13:52:23;;;;;;;16.05;10.35;;;;;;;24.52;21.25;100675.06;4347457;33;32431;-89
2021/11/12 13:54:55;;;;;;;16.40;10.65;;;;;;;25.01;20.25;100660.72;4358684;32;35362;-88
2021/11/12 13:57:26;;;;;;;19.58;12.10;;;;;;;25.84;19.27;100650.66;4322877;33;32339;-89
2021/11/12 14:00:05;;;;;;;17.67;11.18;;;;;;;26.15;18.86;100652.66;4358782;32;33190;-84
2021/11/12 14:03:10;;;;;;;25.12;12.43;;;;;;;26.54;18.38;100645.00;4347121;33;31853;-88
2021/11/12 14:06:01;;;;;;;18.48;11.32;;;;;;;26.73;18.14;100638.97;4346765;33;34689;-87
2021/11/12 14:08:49;;;;;;;18.50;10.98;;;;;;;25.85;18.48;100646.19;4334931;33;32883;-85
2021/11/12 14:11:25;;;;;;;17.80;11.45;;;;;;;24.27;20.16;100650.25;4329862;33;34207;-86
2021/11/12 14:13:57;;;;;;;18.23;11.35;;;;;;;22.83;21.86;100654.19;4332260;33;33420;-87
2021/11/12 14:16:37;;;;;;;20.90;10.93;;;;;;;21.95;22.86;100657.25;4331743;33;33043;-87
2021/11/12 14:21:55;;;;;;;20.30;13.02;;;;;;;20.25;24.93;100662.97;4320092;33;34505;-86
2021/11/12 14:25:10;;;;;;;20.52;12.77;;;;;;;19.73;25.88;100660.56;4321282;33;32889;-87
2021/11/12 14:27:25;;;;;;;19.58;11.02;;;;;;;18.85;27.75;100658.94;4309996;33;32638;-86
2021/11/12 14:30:25;;;;;;;17.10;10.52;;;;;;;18.25;28.59;100664.53;4341142;33;34074;-88
2021/11/12 14:38:29;;;;;;;23.23;12.43;;;;;;;17.61;29.53;100652.56;4331359;33;33563;-87
2021/11/12 14:52:10;;;;;;;21.17;10.98;;;;;;;16.44;33.14;100645.28;4319861;33;34218;-87
2021/11/12 14:54:42;;;;;;;23.85;12.13;;;;;;;16.06;34.11;100645.91;4341845;33;34012;-85
2021/11/12 14:57:23;;;;;;;26.02;11.57;;;;;;;16.01;34.62;100647.88;4334276;33;33266;-89
2021/11/12 15:00:01;;;;;;;19.37;11.10;;;;;;;15.59;35.60;100648.56;4334544;33;33946;-86
2021/11/12 15:02:30;;;;;;;14.30;9.88;;;;;;;15.32;36.31;100649.50;4332914;33;33530;-87
2021/11/12 15:05:02;;;;;;;20.12;10.85;;;;;;;15.12;36.97;100652.00;4318820;33;33528;-87
2021/11/12 15:07:37;;;;;;;18.70;10.32;;;;;;;14.69;37.83;100655.19;4318508;33;32882;-88
2021/11/12 15:10:10;;;;;;;23.27;11.98;;;;;;;14.49;38.27;100652.31;4331265;33;33994;-86
2021/11/12 15:12:39;;;;;;;30.33;11.85;;;;;;;14.63;37.80;100662.38;4330893;33;34582;-88
2021/11/12 15:15:08;;;;;;;21.05;10.95;;;;;;;14.49;38.01;100650.56;4335156;32;34334;-88
2021/11/12 15:17:37;;;;;;;28.60;10.57;;;;;;;14.11;39.15;100652.62;4360425;32;33630;-88
2021/11/12 15:20:05;;;;;;;20.83;10.43;;;;;;;13.92;39.91;100648.84;4348043;32;33022;-87
2021/11/12 15:22:44;;;;;;;19.87;11.05;;;;;;;13.63;40.52;100645.38;4347525;32;33153;-86
2021/11/12 15:25:29;;;;;;;29.25;12.25;;;;;;;13.63;40.46;100656.69;4347626;32;33506;-88
2021/11/12 15:30:45;;;;;;;31.00;12.57;;;;;;;12.99;42.03;100659.28;4336561;32;34157;-87
2021/11/12 15:33:16;;;;;;;30.30;12.50;;;;;;;13.19;41.66;100662.22;4347299;32;33821;-88
2021/11/12 15:35:47;;;;;;;26.00;13.10;;;;;;;12.96;42.11;100664.59;4341082;32;34248;-86
2021/11/12 15:38:24;;;;;;;22.83;11.12;;;;;;;12.93;42.22;100659.44;4332492;33;33587;-88
2021/11/12 15:41:00;;;;;;;26.17;10.60;;;;;;;13.19;41.26;100661.38;4333351;33;32986;-86
2021/11/12 15:46:22;;;;;;;25.92;9.38;;;;;;;12.80;41.83;100666.75;4324082;33;36047;-86
2021/11/12 15:48:50;;;;;;;29.12;9.90;;;;;;;12.69;42.15;100664.41;4344606;33;34620;-86
2021/11/12 15:51:28;;;;;;;24.92;9.65;;;;;;;12.74;41.93;100673.00;4344710;33;33915;-87
2021/11/12 15:57:01;;;;;;;22.90;10.70;;;;;;;12.73;41.72;100683.50;4356791;32;33190;-87
2021/11/12 16:02:32;;;;;;;26.20;10.75;;;;;;;12.49;42.25;100684.03;4344790;32;32990;-87
2021/11/12 16:08:08;;;;;;;30.37;11.70;;;;;;;12.10;42.99;100696.25;4327857;33;33532;-87
2021/11/12 16:13:50;;;;;;;33.53;15.73;;;;;;;11.27;46.05;100688.34;4346954;32;33206;-88
2021/11/12 16:16:29;;;;;;;33.53;15.80;;;;;;;11.53;44.85;100687.84;4335262;32;32731;-88